createdAt,value
2018-10-12T00:01:02.859Z,99.90
2018-10-12T00:03:31.395Z,99.90
2018-10-12T00:05:59.943Z,99.90
2018-10-12T00:08:28.611Z,99.90
2018-10-12T00:10:57.155Z,99.90
2018-10-12T00:13:25.643Z,99.90
2018-10-12T00:15:54.800Z,99.90
2018-10-12T00:18:23.334Z,99.90
2018-10-12T00:20:51.902Z,99.90
2018-10-12T00:23:20.419Z,99.90
2018-10-12T00:25:48.986Z,99.90
2018-10-12T00:28:17.647Z,99.90
2018-10-12T00:30:46.216Z,99.90
2018-10-12T00:33:14.793Z,99.90
2018-10-12T00:35:43.360Z,99.90
2018-10-12T00:38:11.894Z,99.90
2018-10-12T00:40:40.420Z,99.90
2018-10-12T00:43:08.950Z,99.90
2018-10-12T00:45:37.475Z,99.90
2018-10-12T00:48:06.113Z,99.90
2018-10-12T00:50:34.630Z,99.90
2018-10-12T00:53:03.167Z,99.90
2018-10-12T00:55:32.622Z,99.90
2018-10-12T00:58:01.235Z,99.90
2018-10-12T01:00:29.919Z,99.90
2018-10-12T01:02:58.667Z,99.90
2018-10-12T01:05:27.199Z,99.90
2018-10-12T01:07:55.843Z,99.90
2018-10-12T01:10:24.503Z,99.90
2018-10-12T01:12:53.075Z,99.90
2018-10-12T01:15:21.762Z,99.90
2018-10-12T01:17:50.300Z,99.90
2018-10-12T01:20:18.930Z,99.90
2018-10-12T01:22:47.518Z,99.90
2018-10-12T01:25:16.094Z,99.90
2018-10-12T01:27:44.757Z,99.90
2018-10-12T01:30:13.419Z,99.90
2018-10-12T01:32:47.270Z,99.90
2018-10-12T01:35:15.839Z,99.90
2018-10-12T01:37:44.396Z,99.90
2018-10-12T01:40:12.944Z,99.90
2018-10-12T01:42:41.511Z,99.90
2018-10-12T01:45:10.075Z,99.90
2018-10-12T01:47:38.611Z,99.90
2018-10-12T01:50:07.437Z,99.90
2018-10-12T01:52:35.951Z,99.90
2018-10-12T01:55:04.614Z,99.90
2018-10-12T01:57:33.175Z,99.90
2018-10-12T02:00:01.716Z,99.90
2018-10-12T02:02:30.707Z,99.90
2018-10-12T02:04:59.262Z,99.90
2018-10-12T02:07:27.819Z,99.90
2018-10-12T02:09:56.545Z,99.90
2018-10-12T02:12:25.019Z,99.90
2018-10-12T02:14:53.559Z,99.90
2018-10-12T02:17:22.168Z,99.90
2018-10-12T02:19:50.706Z,99.90
2018-10-12T02:22:19.271Z,99.90
2018-10-12T02:24:47.835Z,99.90
2018-10-12T02:27:16.377Z,99.90
2018-10-12T02:29:45.037Z,99.90
2018-10-12T02:32:13.599Z,99.90
2018-10-12T02:34:42.117Z,99.90
2018-10-12T02:37:10.650Z,99.90
2018-10-12T02:39:39.171Z,99.90
2018-10-12T02:42:07.784Z,99.90
2018-10-12T02:44:36.341Z,99.90
2018-10-12T02:47:04.964Z,99.90
2018-10-12T02:49:33.535Z,99.90
2018-10-12T02:52:02.055Z,99.90
2018-10-12T02:54:30.570Z,99.90
2018-10-12T02:56:59.086Z,99.90
2018-10-12T02:59:27.675Z,99.90
2018-10-12T03:01:56.171Z,99.90
2018-10-12T03:04:24.768Z,99.90
2018-10-12T03:06:53.907Z,99.90
2018-10-12T03:09:22.427Z,99.90
2018-10-12T03:11:51.039Z,99.90
2018-10-12T03:14:19.591Z,99.90
2018-10-12T03:16:48.168Z,99.90
2018-10-12T03:19:16.763Z,99.90
2018-10-12T03:21:45.348Z,99.90
2018-10-12T03:24:13.903Z,99.90
2018-10-12T03:26:42.467Z,99.90
2018-10-12T03:29:11.107Z,99.90
2018-10-12T03:31:39.839Z,99.90
2018-10-12T03:34:08.512Z,99.90
2018-10-12T03:36:37.107Z,99.90
2018-10-12T03:39:07.163Z,99.90
2018-10-12T03:41:35.760Z,99.90
2018-10-12T03:44:04.300Z,99.90
2018-10-12T03:46:32.857Z,99.90
2018-10-12T03:49:01.400Z,99.90
2018-10-12T03:51:30.000Z,99.90
2018-10-12T03:53:58.638Z,99.90
2018-10-12T03:56:27.164Z,99.90
2018-10-12T03:58:55.715Z,99.90
2018-10-12T04:01:24.367Z,99.90
2018-10-12T04:03:52.943Z,99.90
2018-10-12T04:06:21.487Z,99.90
2018-10-12T04:08:50.151Z,99.90
2018-10-12T04:11:18.800Z,99.90
2018-10-12T04:13:47.335Z,99.90
2018-10-12T04:16:15.984Z,99.90
2018-10-12T04:18:44.555Z,99.90
2018-10-12T04:21:13.135Z,99.90
2018-10-12T04:23:41.745Z,99.90
2018-10-12T04:26:10.391Z,99.90
2018-10-12T04:28:38.927Z,99.90
2018-10-12T04:31:07.634Z,99.90
2018-10-12T04:33:36.244Z,99.90
2018-10-12T04:36:04.839Z,99.90
2018-10-12T04:38:44.741Z,99.90
2018-10-12T04:41:18.676Z,99.90
2018-10-12T04:43:48.603Z,99.90
2018-10-12T04:46:20.967Z,99.90
2018-10-12T04:48:50.857Z,99.90
2018-10-12T04:51:21.579Z,99.90
2018-10-12T04:53:50.360Z,99.90
2018-10-12T04:56:20.283Z,99.90
2018-10-12T04:58:48.927Z,99.90
2018-10-12T05:01:17.668Z,99.90
2018-10-12T05:03:46.145Z,99.90
2018-10-12T05:06:14.707Z,99.90
2018-10-12T05:08:43.265Z,99.90
2018-10-12T05:11:11.850Z,99.90
2018-10-12T05:13:40.401Z,99.90
2018-10-12T05:16:08.987Z,99.90
2018-10-12T05:18:37.553Z,99.90
2018-10-12T05:21:06.203Z,99.90
2018-10-12T05:23:34.975Z,99.90
2018-10-12T05:26:03.555Z,99.90
2018-10-12T05:28:33.873Z,99.90
2018-10-12T05:31:02.508Z,99.90
2018-10-12T05:33:31.099Z,99.90
2018-10-12T05:35:59.800Z,99.90
2018-10-12T05:38:29.755Z,99.90
2018-10-12T05:40:58.725Z,99.90
2018-10-12T05:43:27.486Z,99.90
2018-10-12T05:45:55.819Z,99.90
2018-10-12T05:48:35.426Z,99.90
2018-10-12T05:51:04.731Z,99.90
2018-10-12T05:53:33.986Z,99.90
2018-10-12T05:56:02.727Z,99.90
2018-10-12T05:58:31.790Z,99.90
2018-10-12T06:01:00.391Z,99.90
2018-10-12T06:03:29.063Z,99.90
2018-10-12T06:05:57.634Z,99.90
2018-10-12T06:08:26.279Z,99.90
2018-10-12T06:10:54.985Z,99.90
2018-10-12T06:13:23.636Z,99.90
2018-10-12T06:15:52.261Z,99.90
2018-10-12T06:18:20.942Z,99.90
2018-10-12T06:20:49.599Z,99.90
2018-10-12T06:23:18.141Z,99.90
2018-10-12T06:25:46.723Z,99.90
2018-10-12T06:28:15.254Z,99.90
2018-10-12T06:30:43.864Z,99.90
2018-10-12T06:33:12.806Z,99.90
2018-10-12T06:35:41.362Z,99.90
2018-10-12T06:38:10.043Z,99.90
2018-10-12T06:40:38.549Z,99.90
2018-10-12T06:43:07.148Z,99.90
2018-10-12T06:45:35.762Z,99.90
2018-10-12T06:48:04.329Z,99.90
2018-10-12T06:50:33.175Z,99.90
2018-10-12T06:53:01.827Z,99.90
2018-10-12T06:55:30.363Z,99.90
2018-10-12T06:57:58.991Z,99.90
2018-10-12T07:00:27.716Z,99.90
2018-10-12T07:02:56.277Z,99.90
2018-10-12T07:05:24.870Z,99.90
2018-10-12T07:07:53.496Z,99.90
2018-10-12T07:10:22.184Z,99.90
2018-10-12T07:12:50.923Z,99.90
2018-10-12T07:15:19.527Z,99.90
2018-10-12T07:17:48.071Z,99.90
2018-10-12T07:20:16.643Z,99.90
2018-10-12T07:22:45.215Z,99.90
2018-10-12T07:25:13.727Z,99.90
2018-10-12T07:27:42.298Z,99.90
2018-10-12T07:30:10.903Z,99.90
2018-10-12T07:32:40.441Z,99.90
2018-10-12T07:35:08.964Z,99.90
2018-10-12T07:37:39.228Z,99.90
2018-10-12T07:40:07.775Z,99.90
2018-10-12T07:42:36.424Z,99.90
2018-10-12T07:45:05.114Z,99.90
2018-10-12T07:47:33.734Z,99.90
2018-10-12T07:50:02.263Z,99.90
2018-10-12T07:52:30.793Z,99.90
2018-10-12T07:54:59.338Z,99.90
2018-10-12T07:57:30.800Z,99.90
2018-10-12T08:00:00.101Z,99.90
2018-10-12T08:02:28.639Z,99.90
2018-10-12T08:04:57.223Z,99.90
2018-10-12T08:07:25.807Z,99.90
2018-10-12T08:09:54.365Z,99.90
2018-10-12T08:12:22.883Z,99.90
2018-10-12T08:14:51.395Z,99.90
2018-10-12T08:17:20.015Z,99.90
2018-10-12T08:19:48.724Z,99.90
2018-10-12T08:22:17.235Z,99.90
2018-10-12T08:24:45.788Z,99.90
2018-10-12T08:27:14.295Z,99.90
2018-10-12T08:29:42.866Z,99.90
2018-10-12T08:32:11.665Z,99.90
2018-10-12T08:34:40.439Z,99.90
2018-10-12T08:37:09.059Z,99.90
2018-10-12T08:39:37.559Z,99.90
2018-10-12T08:42:06.159Z,99.90
2018-10-12T08:44:34.707Z,99.90
2018-10-12T08:47:03.258Z,99.90
2018-10-12T08:49:31.771Z,99.90
2018-10-12T08:52:00.336Z,99.90
2018-10-12T08:54:28.938Z,99.90
2018-10-12T08:56:57.463Z,99.90
2018-10-12T08:59:26.186Z,99.90
2018-10-12T09:01:54.883Z,99.90
2018-10-12T09:04:23.441Z,99.90
2018-10-12T09:06:52.887Z,99.90
2018-10-12T09:09:21.431Z,99.90
2018-10-12T09:11:50.383Z,99.90
2018-10-12T09:14:18.979Z,99.90
2018-10-12T09:16:47.564Z,99.90
2018-10-12T09:19:16.132Z,99.90
2018-10-12T09:21:44.829Z,99.90
2018-10-12T09:24:13.319Z,99.90
2018-10-12T09:26:41.799Z,99.90
2018-10-12T09:29:10.360Z,99.90
2018-10-12T09:31:38.900Z,99.90
2018-10-12T09:34:07.649Z,99.90
2018-10-12T09:36:36.290Z,99.90
2018-10-12T09:39:06.039Z,99.90
2018-10-12T09:41:34.527Z,99.90
2018-10-12T09:44:03.247Z,99.90
2018-10-12T09:46:31.781Z,99.90
2018-10-12T09:49:00.286Z,99.90
2018-10-12T09:51:28.896Z,99.90
2018-10-12T09:53:57.451Z,99.90
2018-10-12T09:56:26.064Z,99.90
2018-10-12T09:58:54.650Z,99.90
2018-10-12T10:01:28.612Z,99.90
2018-10-12T10:04:02.486Z,99.90
2018-10-12T10:06:31.255Z,99.90
2018-10-12T10:08:59.860Z,99.90
2018-10-12T10:11:28.383Z,99.90
2018-10-12T10:13:57.048Z,99.90
2018-10-12T10:16:25.572Z,99.90
2018-10-12T10:18:54.171Z,99.50
2018-10-12T10:21:22.801Z,99.40
2018-10-12T10:23:51.839Z,99.30
2018-10-12T10:26:20.362Z,99.10
2018-10-12T10:28:48.884Z,98.80
2018-10-12T10:31:17.552Z,98.50
2018-10-12T10:33:46.121Z,98.50
2018-10-12T10:36:14.851Z,98.80
2018-10-12T10:38:49.713Z,97.80
2018-10-12T10:41:18.591Z,97.70
2018-10-12T10:43:47.058Z,97.70
2018-10-12T10:46:15.611Z,97.30
2018-10-12T10:48:44.092Z,96.90
2018-10-12T10:51:12.679Z,96.90
2018-10-12T10:53:42.129Z,96.70
2018-10-12T10:56:10.799Z,96.50
2018-10-12T10:58:39.479Z,96.00
2018-10-12T11:01:08.004Z,95.60
2018-10-12T11:03:36.607Z,95.30
2018-10-12T11:06:05.348Z,95.50
2018-10-12T11:08:33.967Z,95.20
2018-10-12T11:11:02.551Z,94.70
2018-10-12T11:13:31.362Z,94.50
2018-10-12T11:15:59.988Z,94.40
2018-10-12T11:18:28.559Z,94.10
2018-10-12T11:20:57.361Z,94.20
2018-10-12T11:23:25.896Z,93.80
2018-10-12T11:25:54.511Z,93.30
2018-10-12T11:28:23.147Z,93.40
2018-10-12T11:30:52.203Z,93.00
2018-10-12T11:33:20.807Z,92.60
2018-10-12T11:35:49.495Z,92.80
2018-10-12T11:44:08.479Z,92.10
2018-10-12T11:46:37.240Z,92.10
2018-10-12T11:49:06.068Z,91.50
2018-10-12T11:51:34.782Z,91.70
2018-10-12T11:54:03.467Z,91.90
2018-10-12T11:56:32.032Z,91.90
2018-10-12T11:59:00.618Z,91.80
2018-10-12T12:01:29.503Z,91.70
2018-10-12T12:03:58.092Z,91.80
2018-10-12T12:06:26.710Z,91.90
2018-10-12T12:08:55.381Z,91.70
2018-10-12T12:11:24.166Z,91.90
2018-10-12T12:13:52.854Z,91.80
2018-10-12T12:16:23.464Z,92.10
2018-10-12T12:18:52.755Z,91.50
2018-10-12T12:21:21.759Z,91.60
2018-10-12T12:23:50.375Z,91.60
2018-10-12T12:26:18.975Z,91.60
2018-10-12T12:28:47.547Z,91.00
2018-10-12T12:31:16.153Z,90.90
2018-10-12T12:33:44.814Z,91.10
2018-10-12T12:36:14.355Z,91.40
2018-10-12T12:38:43.559Z,91.10
2018-10-12T12:41:12.774Z,91.20
2018-10-12T12:43:41.607Z,91.10
2018-10-12T12:46:10.197Z,91.10
2018-10-12T12:48:39.355Z,91.10
2018-10-12T12:51:07.947Z,91.20
2018-10-12T12:53:36.443Z,90.90
2018-10-12T12:56:04.931Z,90.50
2018-10-12T12:58:33.518Z,90.30
2018-10-12T13:01:02.066Z,89.90
2018-10-12T13:03:30.609Z,90.10
2018-10-12T13:05:59.347Z,90.20
2018-10-12T13:08:27.939Z,90.20
2018-10-12T13:10:56.467Z,90.00
2018-10-12T13:13:24.983Z,90.00
2018-10-12T13:15:53.538Z,90.00
2018-10-12T13:18:22.111Z,90.10
2018-10-12T13:20:50.667Z,89.30
2018-10-12T13:23:19.227Z,89.80
2018-10-12T13:25:47.873Z,89.70
2018-10-12T13:28:16.424Z,89.80
2018-10-12T13:30:45.058Z,89.50
2018-10-12T13:33:13.715Z,89.10
2018-10-12T13:35:42.381Z,89.00
2018-10-12T13:38:11.046Z,88.50
2018-10-12T13:40:39.675Z,87.50
2018-10-12T13:43:08.255Z,88.10
2018-10-12T13:45:36.759Z,88.10
2018-10-12T13:48:05.357Z,87.60
2018-10-12T13:50:33.919Z,88.40
2018-10-12T13:53:07.248Z,88.60
2018-10-12T13:55:35.891Z,88.80
2018-10-12T13:58:04.499Z,88.80
2018-10-12T14:00:33.093Z,89.60
2018-10-12T14:03:01.767Z,89.80
2018-10-12T14:05:30.393Z,90.00
2018-10-12T14:07:59.061Z,90.20
2018-10-12T14:10:27.743Z,90.30
2018-10-12T14:12:56.534Z,90.40
2018-10-12T14:15:25.007Z,90.30
2018-10-12T14:17:53.700Z,90.60
2018-10-12T14:20:22.282Z,90.40
2018-10-12T14:22:50.882Z,90.20
2018-10-12T14:25:19.571Z,90.40
2018-10-12T14:27:48.723Z,90.20
2018-10-12T14:30:17.294Z,90.50
2018-10-12T14:32:45.823Z,90.70
2018-10-12T14:35:14.495Z,90.60
2018-10-12T14:37:43.131Z,90.70
2018-10-12T14:40:12.568Z,90.70
2018-10-12T14:42:41.307Z,90.90
2018-10-12T14:45:09.923Z,91.00
2018-10-12T14:47:38.731Z,91.00
2018-10-12T14:50:07.779Z,91.30
2018-10-12T14:52:36.349Z,91.20
2018-10-12T14:55:05.279Z,91.30
2018-10-12T14:57:33.826Z,91.60
2018-10-12T15:00:02.359Z,91.50
2018-10-12T15:02:30.919Z,91.70
2018-10-12T15:04:59.470Z,92.00
2018-10-12T15:07:27.953Z,92.10
2018-10-12T15:09:56.591Z,92.30
2018-10-12T15:12:25.159Z,92.60
2018-10-12T15:15:17.468Z,92.70
2018-10-12T15:17:46.466Z,92.80
2018-10-12T15:20:14.959Z,93.30
2018-10-12T15:22:43.472Z,93.40
2018-10-12T15:25:12.041Z,93.80
2018-10-12T15:27:41.189Z,94.10
2018-10-12T15:30:10.419Z,94.10
2018-10-12T15:32:39.097Z,94.30
2018-10-12T15:35:08.094Z,94.60
2018-10-12T15:37:36.627Z,95.00
2018-10-12T15:40:05.171Z,95.40
2018-10-12T15:42:35.511Z,95.70
2018-10-12T15:45:04.576Z,96.10
2018-10-12T15:47:35.353Z,96.40
2018-10-12T15:50:04.579Z,96.90
2018-10-12T15:52:33.138Z,96.90
2018-10-12T15:55:01.784Z,97.20
2018-10-12T15:57:31.279Z,97.60
2018-10-12T15:59:59.793Z,97.80
2018-10-12T16:02:28.356Z,98.10
2018-10-12T16:04:56.893Z,98.30
2018-10-12T16:07:25.415Z,98.60
2018-10-12T16:09:54.523Z,99.10
2018-10-12T16:12:23.763Z,99.50
2018-10-12T16:14:52.351Z,99.90
2018-10-12T16:17:20.910Z,99.90
2018-10-12T16:19:49.387Z,99.90
2018-10-12T16:22:18.044Z,99.90
2018-10-12T16:24:57.955Z,99.90
2018-10-12T16:27:26.619Z,99.90
2018-10-12T16:29:55.307Z,99.90
2018-10-12T16:32:23.824Z,99.90
2018-10-12T16:34:53.595Z,99.90
2018-10-12T16:37:23.106Z,99.90
2018-10-12T16:39:51.698Z,99.90
2018-10-12T16:42:20.179Z,99.90
2018-10-12T16:44:48.758Z,99.90
2018-10-12T16:47:17.343Z,99.90
2018-10-12T16:49:45.870Z,99.90
2018-10-12T16:52:14.343Z,99.90
2018-10-12T16:54:42.882Z,99.90
2018-10-12T16:57:11.493Z,99.90
2018-10-12T16:59:40.039Z,99.90
2018-10-12T17:02:08.590Z,99.90
2018-10-12T17:04:37.160Z,99.90
2018-10-12T17:07:05.776Z,99.90
2018-10-12T17:09:34.323Z,99.90
2018-10-12T17:12:02.826Z,99.90
2018-10-12T17:14:31.383Z,99.90
2018-10-12T17:16:59.848Z,99.90
2018-10-12T17:19:28.355Z,99.90
2018-10-12T17:21:56.871Z,99.90
2018-10-12T17:24:25.335Z,99.90
2018-10-12T17:26:53.879Z,99.90
2018-10-12T17:29:22.395Z,99.90
2018-10-12T17:31:51.413Z,99.90
2018-10-12T17:34:20.164Z,99.90
2018-10-12T17:36:48.688Z,99.90
2018-10-12T17:39:17.279Z,99.90
2018-10-12T17:41:45.807Z,99.90
2018-10-12T17:44:14.335Z,99.90
2018-10-12T17:46:42.895Z,99.90
2018-10-12T17:49:11.434Z,99.90
2018-10-12T17:51:40.155Z,99.90
2018-10-12T17:54:08.779Z,99.90
2018-10-12T17:56:37.339Z,99.90
2018-10-12T17:59:06.032Z,99.90
2018-10-12T18:01:34.638Z,99.90
2018-10-12T18:04:03.178Z,99.90
2018-10-12T18:06:31.740Z,99.90
2018-10-12T18:09:00.487Z,99.90
2018-10-12T18:11:29.200Z,99.90
2018-10-12T18:13:57.759Z,99.90
2018-10-12T18:16:26.232Z,99.90
2018-10-12T18:18:54.775Z,99.90
2018-10-12T18:21:23.339Z,99.90
2018-10-12T18:23:51.910Z,99.90
2018-10-12T18:26:20.417Z,99.90
2018-10-12T18:28:48.956Z,99.90
2018-10-12T18:31:17.464Z,99.90
2018-10-12T18:33:45.959Z,99.90
2018-10-12T18:36:14.604Z,99.90
2018-10-12T18:38:43.183Z,99.90
2018-10-12T18:41:12.447Z,99.90
2018-10-12T18:43:40.987Z,99.90
2018-10-12T18:46:09.535Z,99.90
2018-10-12T18:48:38.095Z,99.90
2018-10-12T18:51:06.647Z,99.90
2018-10-12T18:53:35.174Z,99.90
2018-10-12T18:56:03.674Z,99.90
2018-10-12T18:58:32.226Z,99.90
2018-10-12T19:01:00.763Z,99.90
2018-10-12T19:03:29.264Z,99.90
2018-10-12T19:05:57.867Z,99.90
2018-10-12T19:08:26.419Z,99.90
2018-10-12T19:10:54.962Z,99.90
2018-10-12T19:13:23.480Z,99.90
2018-10-12T19:15:52.504Z,99.90
2018-10-12T19:18:21.043Z,99.90
2018-10-12T19:20:49.751Z,99.90
2018-10-12T19:23:18.271Z,99.90
2018-10-12T19:25:46.940Z,99.90
2018-10-12T19:28:15.523Z,99.90
2018-10-12T19:30:44.180Z,99.90
2018-10-12T19:33:12.735Z,99.90
2018-10-12T19:35:41.322Z,99.90
2018-10-12T19:38:11.736Z,99.90
2018-10-12T19:40:40.231Z,99.90
2018-10-12T19:43:08.763Z,99.90
2018-10-12T19:45:37.434Z,99.90
2018-10-12T19:48:05.943Z,99.90
2018-10-12T19:50:34.484Z,99.90
2018-10-12T19:53:03.111Z,99.90
2018-10-12T19:55:31.523Z,99.90
2018-10-12T19:58:00.035Z,99.90
2018-10-12T20:00:28.519Z,99.90
2018-10-12T20:02:57.054Z,99.90
2018-10-12T20:05:25.597Z,99.90
2018-10-12T20:07:54.108Z,99.90
2018-10-12T20:10:22.628Z,99.90
2018-10-12T20:12:51.311Z,99.90
2018-10-12T20:15:19.839Z,99.90
2018-10-12T20:17:48.398Z,99.90
2018-10-12T20:20:16.886Z,99.90
2018-10-12T20:22:45.361Z,99.90
2018-10-12T20:25:13.903Z,99.90
2018-10-12T20:27:42.504Z,99.90
2018-10-12T20:30:10.964Z,99.90
2018-10-12T20:32:39.507Z,99.90
2018-10-12T20:35:08.071Z,99.90
2018-10-12T20:37:37.517Z,99.90
2018-10-12T20:40:06.203Z,99.90
2018-10-12T20:42:34.811Z,99.90
2018-10-12T20:45:03.331Z,99.90
2018-10-12T20:47:31.923Z,99.90
2018-10-12T20:50:00.394Z,99.90
2018-10-12T20:52:28.995Z,99.90
2018-10-12T20:54:57.573Z,99.90
2018-10-12T20:57:26.139Z,99.90
2018-10-12T20:59:54.688Z,99.90
2018-10-12T21:02:23.193Z,99.90
2018-10-12T21:04:51.760Z,99.90
2018-10-12T21:07:20.324Z,99.90
2018-10-12T21:09:48.842Z,99.90
2018-10-12T21:12:17.363Z,99.90
2018-10-12T21:14:45.856Z,99.90
2018-10-12T21:17:14.367Z,99.90
2018-10-12T21:19:42.911Z,99.90
2018-10-12T21:22:11.403Z,99.90
2018-10-12T21:24:39.871Z,99.90
2018-10-12T21:27:08.454Z,99.90
2018-10-12T21:29:36.974Z,99.90
2018-10-12T21:32:05.527Z,99.90
2018-10-12T21:34:34.059Z,99.90
2018-10-12T21:37:02.615Z,99.90
2018-10-12T21:39:31.132Z,99.90
2018-10-12T21:41:59.687Z,99.90
2018-10-12T21:44:28.307Z,99.90
2018-10-12T21:46:56.864Z,99.90
2018-10-12T21:49:25.355Z,99.90
2018-10-12T21:51:53.972Z,99.90
2018-10-12T21:54:22.762Z,99.90
2018-10-12T21:56:51.359Z,99.90
2018-10-12T21:59:19.890Z,99.90
2018-10-12T22:01:48.454Z,99.90
2018-10-12T22:04:17.359Z,99.90
2018-10-12T22:06:45.882Z,99.90
2018-10-12T22:09:14.375Z,99.90
2018-10-12T22:11:42.915Z,99.90
2018-10-12T22:14:11.506Z,99.90
2018-10-12T22:16:40.043Z,99.90
2018-10-12T22:19:08.952Z,99.90
2018-10-12T22:21:37.450Z,99.90
2018-10-12T22:24:06.130Z,99.90
2018-10-12T22:26:34.623Z,99.90
2018-10-12T22:29:03.195Z,99.90
2018-10-12T22:31:31.698Z,99.90
2018-10-12T22:34:00.173Z,99.90
2018-10-12T22:36:28.727Z,99.90
2018-10-12T22:38:57.275Z,99.90
2018-10-12T22:41:25.807Z,99.90
2018-10-12T22:43:54.321Z,99.90
2018-10-12T22:46:22.929Z,99.90
2018-10-12T22:48:51.404Z,99.90
2018-10-12T22:51:19.945Z,99.90
2018-10-12T22:53:48.428Z,99.90
2018-10-12T22:56:16.923Z,99.90
2018-10-12T22:58:45.416Z,99.90
2018-10-12T23:01:13.994Z,99.90
2018-10-12T23:03:42.607Z,99.90
2018-10-12T23:06:11.583Z,99.90
2018-10-12T23:08:40.123Z,99.90
2018-10-12T23:11:08.655Z,99.90
2018-10-12T23:13:37.123Z,99.90
2018-10-12T23:16:05.708Z,99.90
2018-10-12T23:18:34.265Z,99.90
2018-10-12T23:21:02.778Z,99.90
2018-10-12T23:23:31.262Z,99.90
2018-10-12T23:25:59.851Z,99.90
2018-10-12T23:28:28.419Z,99.90
2018-10-12T23:30:56.939Z,99.90
2018-10-12T23:33:36.666Z,99.90
2018-10-12T23:36:05.171Z,99.90
2018-10-12T23:38:33.674Z,99.90
2018-10-12T23:41:02.251Z,99.90
2018-10-12T23:43:30.734Z,99.90
2018-10-12T23:45:59.231Z,99.90
2018-10-12T23:48:27.798Z,99.90
2018-10-12T23:50:56.273Z,99.90
2018-10-12T23:53:24.899Z,99.90
2018-10-12T23:55:53.493Z,99.90
2018-10-12T23:58:21.955Z,99.90
